createdAt,value
2019-05-19T00:04:28.897Z,16.31
2019-05-19T00:09:31.613Z,16.28
2019-05-19T00:14:34.347Z,16.24
2019-05-19T00:19:37.048Z,16.19
2019-05-19T00:24:39.734Z,16.12
2019-05-19T00:29:42.458Z,16.01
2019-05-19T00:34:45.260Z,15.91
2019-05-19T00:39:47.975Z,15.84
2019-05-19T00:44:50.717Z,15.81
2019-05-19T00:49:55.166Z,15.77
2019-05-19T00:54:57.936Z,15.76
2019-05-19T01:00:01.306Z,15.73
2019-05-19T01:05:04.391Z,15.65
2019-05-19T01:10:09.211Z,15.48
2019-05-19T01:15:12.210Z,15.40
2019-05-19T01:20:15.514Z,15.41
2019-05-19T01:25:18.215Z,15.40
2019-05-19T01:30:21.102Z,15.40
2019-05-19T01:35:23.816Z,15.30
2019-05-19T01:40:26.487Z,15.30
2019-05-19T01:45:29.205Z,15.21
2019-05-19T01:50:31.923Z,15.19
2019-05-19T01:55:34.624Z,14.99
2019-05-19T02:00:37.412Z,14.94
2019-05-19T02:05:40.113Z,14.79
2019-05-19T02:10:42.799Z,14.64
2019-05-19T02:15:45.513Z,14.73
2019-05-19T02:20:48.229Z,14.78
2019-05-19T02:25:50.917Z,14.82
2019-05-19T02:30:53.776Z,14.72
2019-05-19T02:35:56.493Z,14.79
2019-05-19T02:41:02.335Z,14.78
2019-05-19T02:46:05.845Z,14.78
2019-05-19T02:51:10.595Z,14.72
2019-05-19T02:56:13.788Z,14.68
2019-05-19T03:01:16.483Z,14.61
2019-05-19T03:06:19.194Z,14.59
2019-05-19T03:11:21.940Z,14.57
2019-05-19T03:16:24.644Z,14.51
2019-05-19T03:21:27.352Z,14.38
2019-05-19T03:26:30.072Z,14.01
2019-05-19T03:31:40.261Z,14.05
2019-05-19T03:36:42.957Z,14.04
2019-05-19T03:41:45.701Z,14.16
2019-05-19T03:46:48.421Z,14.33
2019-05-19T03:51:51.158Z,14.67
2019-05-19T03:56:53.857Z,14.85
2019-05-19T04:01:56.551Z,15.06
2019-05-19T04:06:59.264Z,15.20
2019-05-19T04:12:02.002Z,15.33
2019-05-19T04:17:04.698Z,15.43
2019-05-19T04:22:07.380Z,15.52
2019-05-19T04:27:10.098Z,15.63
2019-05-19T04:32:12.808Z,15.71
2019-05-19T04:37:15.746Z,15.82
2019-05-19T04:42:18.455Z,15.89
2019-05-19T04:47:21.197Z,15.71
2019-05-19T04:52:24.872Z,15.49
2019-05-19T04:57:28.931Z,15.78
2019-05-19T05:02:32.144Z,16.18
2019-05-19T05:07:34.835Z,16.56
2019-05-19T05:12:37.538Z,16.87
2019-05-19T05:17:40.241Z,17.18
2019-05-19T05:22:42.961Z,17.29
2019-05-19T05:27:45.661Z,17.38
2019-05-19T05:32:48.368Z,17.52
2019-05-19T05:37:51.069Z,17.53
2019-05-19T05:42:54.117Z,17.21
2019-05-19T05:47:56.899Z,17.25
2019-05-19T05:52:59.605Z,17.61
2019-05-19T05:58:02.363Z,17.96
2019-05-19T06:03:05.244Z,18.39
2019-05-19T06:08:07.973Z,18.83
2019-05-19T06:13:12.539Z,19.09
2019-05-19T06:18:15.244Z,19.23
2019-05-19T06:23:17.968Z,19.54
2019-05-19T06:28:20.688Z,19.93
2019-05-19T06:33:23.425Z,20.23
2019-05-19T06:38:26.230Z,20.02
2019-05-19T06:43:29.070Z,20.22
2019-05-19T06:48:31.811Z,20.52
2019-05-19T06:53:34.796Z,20.71
2019-05-19T06:58:37.614Z,20.94
2019-05-19T07:03:40.408Z,21.09
2019-05-19T07:08:43.115Z,21.31
2019-05-19T07:13:45.951Z,21.46
2019-05-19T07:18:48.671Z,21.81
2019-05-19T07:23:51.385Z,22.31
2019-05-19T07:28:54.147Z,22.51
2019-05-19T07:33:56.859Z,22.77
2019-05-19T07:38:59.734Z,22.65
2019-05-19T07:44:02.494Z,23.02
2019-05-19T07:49:05.207Z,23.13
2019-05-19T07:54:09.675Z,23.32
2019-05-19T07:59:12.427Z,23.66
2019-05-19T08:04:15.130Z,23.80
2019-05-19T08:09:17.840Z,23.79
2019-05-19T08:14:20.571Z,23.99
2019-05-19T08:19:23.305Z,24.09
2019-05-19T08:24:26.354Z,24.41
2019-05-19T08:29:29.177Z,24.38
2019-05-19T08:34:31.899Z,24.51
2019-05-19T08:39:34.675Z,24.83
2019-05-19T08:44:39.285Z,24.58
2019-05-19T08:49:41.994Z,24.51
2019-05-19T08:54:44.705Z,24.66
2019-05-19T08:59:47.512Z,24.75
2019-05-19T09:04:50.262Z,25.05
2019-05-19T09:09:53.082Z,25.10
2019-05-19T09:14:56.028Z,25.09
2019-05-19T09:19:58.718Z,24.79
2019-05-19T09:25:01.589Z,24.96
2019-05-19T09:30:05.840Z,25.26
2019-05-19T09:35:08.757Z,25.49
2019-05-19T09:40:11.682Z,25.62
2019-05-19T09:45:14.719Z,25.16
2019-05-19T09:50:17.839Z,25.44
2019-05-19T09:55:20.574Z,25.86
2019-05-19T10:00:23.481Z,25.62
2019-05-19T10:05:26.201Z,25.98
2019-05-19T10:10:39.300Z,26.19
2019-05-19T10:15:42.166Z,26.46
2019-05-19T10:20:45.037Z,26.59
2019-05-19T10:25:47.796Z,26.52
2019-05-19T10:30:50.515Z,26.40
2019-05-19T10:35:53.220Z,26.86
2019-05-19T10:40:56.033Z,27.50
2019-05-19T10:45:59.296Z,27.89
2019-05-19T10:51:05.688Z,27.78
2019-05-19T10:56:10.540Z,27.48
2019-05-19T11:01:13.760Z,28.07
2019-05-19T11:06:16.784Z,28.55
2019-05-19T11:11:20.437Z,28.79
2019-05-19T11:16:23.861Z,29.05
2019-05-19T11:21:27.406Z,29.21
2019-05-19T11:26:31.365Z,29.46
2019-05-19T11:31:34.749Z,29.01
2019-05-19T11:36:37.449Z,28.40
2019-05-19T11:41:40.158Z,27.76
2019-05-19T11:46:42.903Z,26.87
2019-05-19T11:51:45.626Z,26.79
2019-05-19T11:56:48.348Z,26.27
2019-05-19T12:01:53.381Z,26.17
2019-05-19T12:06:56.284Z,26.72
2019-05-19T12:11:59.025Z,26.93
2019-05-19T12:17:01.785Z,27.24
2019-05-19T12:22:04.508Z,27.47
2019-05-19T12:27:07.245Z,26.98
2019-05-19T12:32:09.974Z,26.95
2019-05-19T12:37:12.679Z,27.54
2019-05-19T12:42:15.362Z,27.78
2019-05-19T12:47:18.098Z,27.72
2019-05-19T12:52:20.864Z,27.68
2019-05-19T12:57:23.605Z,27.61
2019-05-19T13:02:26.323Z,27.91
2019-05-19T13:07:29.058Z,27.73
2019-05-19T13:12:31.772Z,28.11
2019-05-19T13:17:34.500Z,28.24
2019-05-19T13:22:37.206Z,28.43
2019-05-19T13:27:39.950Z,28.41
2019-05-19T13:32:42.650Z,28.66
2019-05-19T13:37:45.386Z,29.12
2019-05-19T13:42:48.101Z,29.55
2019-05-19T13:47:51.151Z,29.15
2019-05-19T13:52:53.906Z,28.06
2019-05-19T13:57:56.607Z,27.74
2019-05-19T14:02:59.351Z,28.22
2019-05-19T14:08:02.068Z,28.90
2019-05-19T14:13:04.809Z,28.72
2019-05-19T14:18:07.553Z,29.01
2019-05-19T14:23:10.274Z,29.72
2019-05-19T14:28:13.049Z,29.27
2019-05-19T14:33:15.791Z,29.85
2019-05-19T14:38:18.520Z,30.84
2019-05-19T14:43:21.639Z,31.11
2019-05-19T14:48:24.398Z,30.95
2019-05-19T14:53:27.174Z,31.39
2019-05-19T14:58:29.929Z,31.31
2019-05-19T15:03:33.615Z,31.10
2019-05-19T15:08:36.386Z,30.57
2019-05-19T15:13:39.354Z,30.88
2019-05-19T15:18:42.082Z,30.88
2019-05-19T15:23:44.869Z,30.55
2019-05-19T15:28:47.608Z,30.57
2019-05-19T15:33:51.079Z,30.87
2019-05-19T15:38:53.793Z,31.15
2019-05-19T15:43:56.560Z,31.26
2019-05-19T15:48:59.302Z,30.89
2019-05-19T15:54:02.071Z,30.46
2019-05-19T15:59:04.787Z,30.07
2019-05-19T16:04:07.501Z,30.46
2019-05-19T16:09:10.228Z,30.57
2019-05-19T16:14:12.978Z,30.62
2019-05-19T16:19:15.713Z,30.80
2019-05-19T16:24:18.458Z,30.48
2019-05-19T16:29:21.224Z,30.42
2019-05-19T16:34:23.940Z,30.31
2019-05-19T16:39:26.709Z,30.07
2019-05-19T16:44:29.437Z,29.81
2019-05-19T16:49:32.170Z,29.54
2019-05-19T16:54:37.222Z,29.22
2019-05-19T16:59:39.919Z,29.10
2019-05-19T17:04:42.643Z,29.12
2019-05-19T17:09:45.340Z,29.05
2019-05-19T17:14:49.226Z,29.00
2019-05-19T17:19:52.101Z,28.67
2019-05-19T17:24:54.917Z,28.34
2019-05-19T17:29:58.820Z,28.38
2019-05-19T17:35:01.565Z,28.54
2019-05-19T17:40:04.971Z,28.21
2019-05-19T17:45:09.164Z,27.93
2019-05-19T17:50:14.222Z,27.56
2019-05-19T17:55:16.927Z,27.31
2019-05-19T18:00:38.711Z,27.03
2019-05-19T18:05:41.406Z,26.68
2019-05-19T18:10:44.115Z,26.42
2019-05-19T18:15:46.839Z,26.23
2019-05-19T18:20:49.685Z,25.89
2019-05-19T18:25:52.389Z,25.57
2019-05-19T18:30:55.224Z,25.61
2019-05-19T18:35:58.238Z,25.51
2019-05-19T18:41:01.056Z,25.31
2019-05-19T18:46:03.811Z,25.18
2019-05-19T18:51:06.502Z,24.94
2019-05-19T18:56:09.309Z,24.75
2019-05-19T19:01:12.037Z,24.67
2019-05-19T19:06:14.887Z,24.52
2019-05-19T19:11:17.593Z,24.36
2019-05-19T19:16:20.359Z,24.21
2019-05-19T19:21:23.093Z,24.12
2019-05-19T19:26:25.819Z,23.94
2019-05-19T19:31:28.523Z,23.68
2019-05-19T19:36:31.285Z,23.01
2019-05-19T19:41:34.388Z,22.88
2019-05-19T19:46:37.112Z,23.15
2019-05-19T19:51:39.807Z,22.81
2019-05-19T19:56:42.507Z,22.58
2019-05-19T20:01:45.368Z,22.33
2019-05-19T20:06:48.349Z,22.07
2019-05-19T20:11:51.090Z,21.99
2019-05-19T20:16:53.788Z,21.77
2019-05-19T20:21:56.588Z,21.63
2019-05-19T20:26:59.289Z,21.49
2019-05-19T20:32:02.015Z,21.40
2019-05-19T20:37:05.022Z,21.38
2019-05-19T20:42:07.823Z,21.45
2019-05-19T20:47:10.553Z,21.56
2019-05-19T20:52:13.262Z,21.62
2019-05-19T20:57:16.155Z,21.63
2019-05-19T21:02:18.893Z,21.57
2019-05-19T21:07:21.620Z,21.52
2019-05-19T21:12:24.594Z,21.43
2019-05-19T21:17:27.337Z,21.19
2019-05-19T21:22:30.147Z,20.99
2019-05-19T21:27:32.853Z,20.89
2019-05-19T21:32:35.607Z,20.85
2019-05-19T21:37:38.334Z,20.91
2019-05-19T21:42:41.055Z,20.90
2019-05-19T21:47:43.825Z,20.86
2019-05-19T21:52:46.535Z,20.72
2019-05-19T21:57:49.262Z,20.74
2019-05-19T22:02:51.972Z,20.64
2019-05-19T22:08:14.069Z,20.58
2019-05-19T22:13:16.812Z,20.47
2019-05-19T22:18:19.600Z,20.51
2019-05-19T22:23:22.289Z,20.48
2019-05-19T22:28:24.980Z,20.41
2019-05-19T22:33:27.678Z,20.44
2019-05-19T22:38:30.421Z,20.38
2019-05-19T22:43:33.102Z,20.23
2019-05-19T22:48:35.809Z,20.09
2019-05-19T22:53:38.488Z,19.98
2019-05-19T22:58:41.716Z,19.90
2019-05-19T23:03:44.481Z,19.79
2019-05-19T23:08:47.211Z,19.44
2019-05-19T23:13:49.943Z,19.53
2019-05-19T23:18:52.667Z,19.58
2019-05-19T23:23:55.384Z,19.42
2019-05-19T23:28:58.075Z,19.25
2019-05-19T23:34:00.795Z,19.12
2019-05-19T23:39:05.193Z,19.08
2019-05-19T23:44:08.162Z,18.99
2019-05-19T23:49:10.886Z,19.10
2019-05-19T23:54:13.602Z,19.09
2019-05-19T23:59:16.307Z,18.94
